Neola, Utah
Current Conditions -  °F | °C
As of 3:53 PM on Saturday 25 Oct 2014 (Local Time) from KVEL Reporting Station
Clear Clear  
Wind Chill: 70°   Ceiling: Unl
Heat Index: 70°   Visibility: 10mi
Dew Point: 36°   Wind: 0mph
Humidity: 29%   Direction: NA
Pressure: 30.1"   Gusts: NA
Location:  40.43°N, 110.03°W
Report Text: KVEL 252153Z AUTO 00000KT 10SM CLR 21/02 A3010 RMK AO2 SLP152 T02110022
Loading
Personal Weather Stations






























Interactive Weather Map
Tropical Storm Tracking
New forecast layout! Learn more

10-Day Weather Forecast

Advertisements
Track Severe Weather on mobile